Flight Track Log - Related Links

Times and Time Zones

All times are in EDT time to prevent confusion due to time zone crossing. See the QJE1925 flight status page for this flight to view local times or setup timezone preferences in your user account.

Time Position Orientation Groundspeed Altitude Reporting Facility
EDT Latitude Longitude Course Direction KTS MPH feet Rate Location/Type
Wed 10:34:42 PM -18.0012 122.1930 203° Southwest 17,300  Level Aus ATC (Calculated)
Wed 10:35:41 PM -18.0504 122.1639 203° Southwest 17,300 573 Level Aus ATC (Calculated)
Wed 10:36:03 PM -18.0529 122.1582 203° Southwest 17,300 593 Level Aus ATC (Calculated)
Wed 10:37:01 PM -18.1024 122.1282 202° Southwest 17,300 600 Level Aus ATC (Calculated)
Wed 10:38:12 PM -18.2077 122.0539 202° Southwest 17,300 622 Level Aus ATC (Calculated)
Wed 10:38:41 PM -18.2065 122.0567 202° Southwest 17,300 651 Level Aus ATC (Calculated)
Wed 10:40:00 PM -18.3377 121.9664 213° Southwest  Level FlightAware Approximate
Wed 10:40:35 PM -18.3625 121.9493 201° Southwest 17,300  Level Aus ATC (Calculated)
Wed 10:41:00 PM -18.4374 121.8977 213° Southwest  Level FlightAware Approximate
Wed 10:41:20 PM -18.3625 121.9493 201° Southwest 32,000  Level Aus ATC (Calculated)
Wed 10:43:00 PM -18.5610 121.9493 180° South  Level FlightAware Approximate
Wed 10:44:00 PM -18.4523 121.9125 201° Southwest  Level FlightAware Approximate
Wed 10:44:15 PM -18.7262 121.8000 201° Southwest 32,000  Level Aus ATC (Calculated)
Wed 10:46:00 PM -18.9203 121.7200 201° Southwest  Level FlightAware Approximate
Wed 10:46:36 PM -18.9989 121.6875 201° Southwest 32,000  Level Aus ATC (Calculated)
Wed 10:47:00 PM -19.0313 121.6742 201° Southwest  Level FlightAware Approximate
Wed 10:47:15 PM -19.0898 121.6500 201° Southwest 32,000  Level Aus ATC (Calculated)
Wed 10:48:00 PM -19.1542 121.6233 201° Southwest  Level FlightAware Approximate
Wed 10:49:00 PM -19.2838 121.5696 201° Southwest  Level FlightAware Approximate
Wed 10:49:20 PM -19.3623 121.5371 201° Southwest 32,000  Level Aus ATC (Calculated)
Wed 10:50:02 PM -19.4532 121.4993 201° Southwest 32,000 138 Level Aus ATC (Calculated)
Wed 10:50:36 PM -19.5440 121.4616 201° Southwest 32,000 145 Level Aus ATC (Calculated)
Wed 10:51:13 PM -19.6348 121.4238 201° Southwest 32,000 151 Level Aus ATC (Calculated)
Wed 10:51:26 PM -19.6348 121.4238 201° Southwest 32,000 158 Level Aus ATC (Calculated)
Wed 10:52:19 PM -19.7256 121.3859 201° Southwest 32,000 161 Level Aus ATC (Calculated)
Wed 10:53:03 PM -19.8164 121.3480 201° Southwest 32,000 173 Level Aus ATC (Calculated)
Wed 10:53:47 PM -19.9293 121.3009 201° Southwest 32,000 185 Level Aus ATC (Calculated)
Wed 10:54:21 PM -19.9857 121.2773 201° Southwest 32,000 198 Level Aus ATC (Calculated)
Wed 10:56:00 PM -19.8071 121.3519 21° North  Level FlightAware Approximate
Wed 10:57:00 PM -19.9154 121.3067 201° Southwest  Level FlightAware Approximate
Wed 10:57:01 PM -20.3243 121.1353 201° Southwest 32,000  Level Aus ATC (Calculated)
Wed 10:59:00 PM -20.1080 121.2261 22° Northeast  Level FlightAware Approximate
Wed 11:00:00 PM -19.9989 121.2718 21° North  Level FlightAware Approximate
Wed 11:01:00 PM -20.1086 121.2277 201° Southwest  Level Estimated
Wed 11:02:00 PM -20.2176 121.1819 202° Southwest  Level FlightAware Approximate
Wed 11:02:01 PM -20.8882 120.8972 201° Southwest 32,000  Level Aus ATC (Calculated)
Wed 11:03:52 PM -20.9420 120.8750 202° Southwest 428 493 34,000 764 Climbing FlightAware ADS-B
Wed 11:04:00 PM -21.1078 120.8040 202° Southwest  Level FlightAware Approximate
Wed 11:04:38 PM -21.0190 120.8420 202° Southwest 428 493 34,000  Level FlightAware ADS-B
Wed 11:05:23 PM -21.1020 120.8070 201° Southwest 427 491 34,000  Level FlightAware ADS-B
Wed 11:06:00 PM -21.1600 120.7830 201° Southwest 427 491 34,000  Level FlightAware ADS-B
Wed 11:06:33 PM -21.2410 120.7480 202° Southwest 428 493 34,000  Level FlightAware ADS-B
Wed 11:07:05 PM -21.2944 120.7208 202° Southwest 409 471 34,000  Level Aus ATC (RADAR)
Wed 11:07:12 PM -21.3020 120.7230 202° Southwest 428 493 34,000  Level FlightAware ADS-B
Wed 11:07:49 PM -21.3600 120.6990 201° Southwest 428 493 34,000  Level FlightAware ADS-B
Wed 11:08:29 PM -21.4540 120.6570 203° Southwest 430 495 34,000  Level FlightAware ADS-B
Wed 11:09:11 PM -21.5300 120.6240 203° Southwest 430 495 34,000  Level FlightAware ADS-B
Wed 11:09:15 PM -21.5360 120.6190 203° Southwest 426 490 34,000  Level Aus ATC (RADAR)
Wed 11:09:51 PM -21.6060 120.5920 201° Southwest 430 495 34,000  Level FlightAware ADS-B
Wed 11:10:31 PM -21.6780 120.5600 202° Southwest 430 495 34,000  Level FlightAware ADS-B
Wed 11:11:07 PM -21.7470 120.5310 201° Southwest 429 494 34,000  Level FlightAware ADS-B
Wed 11:11:48 PM -21.8140 120.5030 201° Southwest 430 495 34,000  Level FlightAware ADS-B
Wed 11:12:32 PM -21.8920 120.4690 202° Southwest 429 494 34,000  Level FlightAware ADS-B
Wed 11:13:09 PM -21.9500 120.4450 201° Southwest 429 494 34,000  Level FlightAware ADS-B
Wed 11:13:45 PM -22.0070 120.4220 201° Southwest 429 494 34,000  Level FlightAware ADS-B
Wed 11:14:21 PM -22.1010 120.3790 203° Southwest 429 494 34,000  Level FlightAware ADS-B
Wed 11:14:59 PM -22.1750 120.3470 202° Southwest 431 496 34,000  Level FlightAware ADS-B
Wed 11:15:53 PM -22.2650 120.3080 202° Southwest 430 495 34,000  Level FlightAware ADS-B
Wed 11:16:37 PM -22.3490 120.2720 202° Southwest 431 496 34,000  Level FlightAware ADS-B
Wed 11:17:14 PM -22.4080 120.2480 201° Southwest 431 496 34,000 90 Level FlightAware ADS-B
Wed 11:17:44 PM -22.4792 120.2147 201° Southwest 432 497 34,100  Climbing Aus ATC (RADAR)
Wed 11:17:52 PM -22.4680 120.2230 201° Southwest 431 496 34,000 -136 Descending FlightAware ADS-B
Wed 11:18:28 PM -22.5250 120.1990 201° Southwest 431 496 34,000  Level FlightAware ADS-B
Wed 11:19:05 PM -22.5830 120.1750 201° Southwest 431 496 34,000  Level FlightAware ADS-B
Wed 11:19:42 PM -22.6420 120.1510 201° Southwest 431 496 34,000  Level FlightAware ADS-B
Wed 11:20:18 PM -22.6990 120.1270 201° Southwest 431 496 34,000  Level FlightAware ADS-B
Wed 11:20:54 PM -22.7560 120.1030 201° Southwest 431 496 34,000  Level FlightAware ADS-B
Wed 11:21:30 PM -22.8130 120.0790 201° Southwest 431 496 34,000  Level FlightAware ADS-B
Wed 11:22:06 PM -22.8700 120.0560 200° South 431 496 34,000  Level FlightAware ADS-B
Wed 11:22:42 PM -22.9270 120.0320 201° Southwest 431 496 34,000  Level FlightAware ADS-B
Wed 11:23:18 PM -22.9840 120.0080 201° Southwest 431 496 34,000  Level FlightAware ADS-B
Wed 11:23:55 PM -23.0420 119.9840 201° Southwest 431 496 34,000  Level FlightAware ADS-B
Wed 11:24:31 PM -23.0990 119.9600 201° Southwest 431 496 34,000  Level FlightAware ADS-B
Wed 11:25:08 PM -23.1580 119.9360 201° Southwest 431 496 34,000  Level FlightAware ADS-B
Wed 11:25:45 PM -23.2160 119.9110 202° Southwest 431 496 34,000 80 Level FlightAware ADS-B
Wed 11:26:23 PM -23.4429 119.7939 202° Southwest 431 496 34,100 72 Climbing Aus ATC (RADAR)
Wed 11:27:08 PM -23.5242 119.7594 201° Southwest 422 486 34,100  Level Aus ATC (RADAR)
Wed 11:27:38 PM -23.5806 119.7364 201° Southwest 428 493 34,100 -92 Level Aus ATC (RADAR)
Wed 11:28:13 PM -23.6503 119.7081 200° South 455 524 34,000 -55 Descending Aus ATC (RADAR)
Wed 11:29:28 PM -23.7853 119.6511 201° Southwest 430 495 34,000  Level Aus ATC (RADAR)
Wed 11:30:28 PM -23.8970 119.6039 201° Southwest 430 495 34,000  Level Aus ATC (RADAR)
Wed 11:31:08 PM -23.9717 119.5725 201° Southwest 431 496 34,000  Level Aus ATC (RADAR)
Wed 11:31:43 PM -24.0365 119.5455 201° Southwest 426 490 34,000  Level Aus ATC (RADAR)
Wed 11:32:27 PM -24.1204 119.5103 201° Southwest 430 495 34,000  Level Aus ATC (RADAR)
Wed 11:33:27 PM -24.2336 119.4622 201° Southwest 434 499 34,000  Level Aus ATC (RADAR)
Wed 11:34:27 PM -24.3451 119.4151 201° Southwest 432 497 34,000  Level Aus ATC (RADAR)
Wed 11:35:27 PM -24.4575 119.3678 201° Southwest 433 498 34,000  Level Aus ATC (RADAR)
Wed 11:36:12 PM -24.5413 119.3325 201° Southwest 433 498 34,000  Level Aus ATC (RADAR)
Wed 11:36:47 PM -24.6072 119.3047 201° Southwest 433 498 34,000  Level Aus ATC (RADAR)
Wed 11:37:37 PM -24.7012 119.2651 201° Southwest 435 501 34,000  Level Aus ATC (RADAR)
Wed 11:38:37 PM -24.8128 119.2180 201° Southwest 431 496 34,000  Level Aus ATC (RADAR)
Wed 11:39:42 PM -24.9351 119.1669 201° Southwest 435 501 34,000  Level Aus ATC (RADAR)
Wed 11:40:42 PM -25.0471 119.1185 201° Southwest 432 497 34,000  Level Aus ATC (RADAR)
Wed 11:41:22 PM -25.1220 119.0858 202° Southwest 433 498 34,000  Level Aus ATC (RADAR)
Wed 11:42:01 PM -25.1968 119.0552 200° South 431 496 34,000  Level Aus ATC (RADAR)
Wed 11:42:36 PM -25.2617 119.0265 202° Southwest 430 495 34,000  Level Aus ATC (RADAR)
Wed 11:43:11 PM -25.3282 118.9968 202° Southwest 438 504 34,000  Level Aus ATC (RADAR)
Wed 11:43:46 PM -25.3933 118.9690 201° Southwest 436 502 34,000  Level Aus ATC (RADAR)
Wed 11:44:52 PM -25.5144 118.9174 201° Southwest 431 496 34,000  Level Aus ATC (RADAR)
Wed 11:45:51 PM -25.6270 118.8685 201° Southwest 432 497 34,000  Level Aus ATC (RADAR)
Wed 11:46:36 PM -25.7117 118.8319 201° Southwest 436 502 34,000  Level Aus ATC (RADAR)
Wed 11:47:11 PM -25.7769 118.8034 201° Southwest 434 499 34,000  Level Aus ATC (RADAR)
Wed 11:48:01 PM -25.8703 118.7649 200° South 431 496 34,000  Level Aus ATC (RADAR)
Wed 11:49:46 PM -26.0698 118.6768 202° Southwest 442 509 34,000  Level Aus ATC (RADAR)
Wed 11:50:36 PM -26.1647 118.6325 203° Southwest 442 509 34,000  Level Aus ATC (RADAR)
Wed 11:51:10 PM -26.2297 118.6057 200° South 434 499 34,000  Level Aus ATC (RADAR)
Wed 11:52:00 PM -26.3229 118.5657 201° Southwest 432 497 34,000  Level Aus ATC (RADAR)
Wed 11:52:35 PM -26.3879 118.5399 200° South 429 494 34,000  Level Aus ATC (RADAR)
Wed 11:53:25 PM -26.4806 118.5043 199° South 424 488 34,000  Level Aus ATC (RADAR)
Wed 11:55:10 PM -26.6786 118.4113 203° Southwest 438 504 34,000  Level Aus ATC (RADAR)
Wed 11:56:10 PM -26.7893 118.3616 202° Southwest 434 499 34,000  Level Aus ATC (RADAR)
Wed 11:59:30 PM -27.1414 118.2048 202° Southwest 34,000  Level Aus ATC (Calculated)
Thu 12:00:55 AM -27.2866 118.1399 202° Southwest 34,000  Level Aus ATC (Calculated)
Thu 12:01:00 AM -27.3186 118.1255 202° Southwest  Level FlightAware Approximate
Thu 12:02:00 AM -27.4145 118.0825 202° Southwest  Level FlightAware Approximate
Thu 12:03:00 AM -27.5326 118.0294 202° Southwest  Level FlightAware Approximate
Thu 12:04:00 AM -27.6506 117.9762 202° Southwest  Level FlightAware Approximate
Thu 12:04:14 AM -27.6797 117.9631 203° Southwest 34,000  Level Aus ATC (Calculated)
Thu 12:05:54 AM -27.9154 117.8565 203° Southwest 34,000  Level Aus ATC (Calculated)
Thu 12:06:00 AM -27.8881 117.8688 202° Southwest  Level FlightAware Approximate
Thu 12:06:19 AM -27.9883 117.8235 204° Southwest 34,000  Level Aus ATC (Calculated)
Thu 12:08:00 AM -27.7896 117.9132 22° Northeast  Level FlightAware Approximate
Thu 12:08:39 AM -28.1710 117.7317 22° Northeast 424 488 34,000  Level Aus ATC (RADAR)
Thu 12:09:15 AM -28.2357 117.7031 201° Southwest 428 493 34,000  Level Aus ATC (RADAR)
Thu 12:10:09 AM -28.3361 117.6565 202° Southwest 426 490 34,000  Level Aus ATC (RADAR)
Thu 12:11:14 AM -28.4541 117.5999 203° Southwest 428 493 34,000  Level Aus ATC (RADAR)
Thu 12:12:03 AM -28.5443 117.5548 204° Southwest 425 489 34,000  Level Aus ATC (RADAR)
Thu 12:12:38 AM -28.6101 117.5274 200° South 426 490 34,000  Level Aus ATC (RADAR)
Thu 12:13:23 AM -28.6929 117.4883 203° Southwest 429 494 34,000  Level Aus ATC (RADAR)
Thu 12:13:50 AM -28.7390 117.4820 201° Southwest 432 497 34,000  Level FlightAware ADS-B
Thu 12:14:23 AM -28.8048 117.4393 201° Southwest 432 497 34,000  Level Aus ATC (RADAR)
Thu 12:14:24 AM -28.8060 117.4510 202° Southwest 422 486 34,000  Level FlightAware ADS-B
Thu 12:14:58 AM -28.8700 117.4210 202° Southwest 422 486 34,000  Level FlightAware ADS-B
Thu 12:15:28 AM -28.9252 117.3859 202° Southwest 428 493 34,000  Level Aus ATC (RADAR)
Thu 12:15:37 AM -28.9350 117.3910 202° Southwest 430 495 34,000  Level FlightAware ADS-B
Thu 12:16:10 AM -29.0010 117.3610 202° Southwest 422 486 34,000  Level FlightAware ADS-B
Thu 12:16:44 AM -29.0630 117.3320 202° Southwest 430 495 34,000  Level FlightAware ADS-B
Thu 12:17:20 AM -29.1260 117.3030 202° Southwest 430 495 34,000  Level FlightAware ADS-B
Thu 12:17:58 AM -29.2030 117.2680 202° Southwest 422 486 34,000  Level FlightAware ADS-B
Thu 12:18:31 AM -29.2580 117.2420 202° Southwest 423 487 34,000  Level FlightAware ADS-B
Thu 12:19:12 AM -29.3370 117.2050 202° Southwest 432 497 34,000  Level FlightAware ADS-B
Thu 12:19:46 AM -29.3990 117.1770 201° Southwest 435 501 34,000  Level FlightAware ADS-B
Thu 12:20:24 AM -29.4740 117.1420 202° Southwest 437 503 34,000  Level FlightAware ADS-B
Thu 12:20:54 AM -29.5240 117.1190 202° Southwest 437 503 34,000  Level FlightAware ADS-B
Thu 12:21:35 AM -29.6080 117.0790 202° Southwest 436 502 34,000  Level FlightAware ADS-B
Thu 12:22:06 AM -29.6640 117.0530 202° Southwest 435 501 34,000  Level FlightAware ADS-B
Thu 12:22:43 AM -29.7320 117.0210 202° Southwest 434 499 34,000  Level FlightAware ADS-B
Thu 12:23:19 AM -29.7970 116.9910 202° Southwest 436 502 34,000  Level FlightAware ADS-B
Thu 12:23:50 AM -29.8540 116.9640 202° Southwest 436 502 34,000 -182 Level FlightAware ADS-B
Thu 12:23:52 AM -29.8643 116.9536 202° Southwest 438 504 33,900  Descending Aus ATC (RADAR)
Thu 12:24:27 AM -29.9280 116.9290 202° Southwest 438 504 34,000 76 Climbing FlightAware ADS-B
Thu 12:25:11 AM -30.0100 116.8900 202° Southwest 437 503 34,000  Level FlightAware ADS-B
Thu 12:25:52 AM -30.0887 116.8474 202° Southwest 434 499 34,000  Level Aus ATC (RADAR)
Thu 12:25:55 AM -30.0870 116.8530 202° Southwest 438 504 34,000  Level FlightAware ADS-B
Thu 12:26:27 AM -30.1480 116.8250 202° Southwest 432 497 34,000  Level FlightAware ADS-B
Thu 12:27:03 AM -30.2210 116.7900 203° Southwest 437 503 34,000 -86 Level FlightAware ADS-B
Thu 12:27:37 AM -30.2861 116.7549 203° Southwest 437 503 33,900  Descending Aus ATC (RADAR)
Thu 12:27:41 AM -30.2920 116.7560 203° Southwest 439 505 34,000  Climbing FlightAware ADS-B
Thu 12:28:12 AM -30.3519 116.7245 203° Southwest 437 503 33,900  Descending Aus ATC (RADAR)
Thu 12:28:21 AM -30.3610 116.7230 203° Southwest 439 505 34,000 140 Climbing FlightAware ADS-B
Thu 12:28:55 AM -30.4310 116.6910 202° Southwest 434 499 34,000  Level FlightAware ADS-B
Thu 12:29:29 AM -30.4950 116.6600 203° Southwest 435 501 34,000  Level FlightAware ADS-B
Thu 12:30:10 AM -30.5750 116.6240 201° Southwest 456 525 34,000  Level FlightAware ADS-B
Thu 12:30:40 AM -30.6290 116.6030 201° Southwest 455 524 34,000 -167 Level FlightAware ADS-B
Thu 12:30:46 AM -30.6506 116.5923 201° Southwest 454 522 33,900 -194 Descending Aus ATC (RADAR)
Thu 12:31:11 AM -30.7001 116.5725 201° Southwest 450 518 33,900 194 Level Aus ATC (RADAR)
Thu 12:31:17 AM -30.7090 116.5720 201° Southwest 439 505 34,000 136 Climbing FlightAware ADS-B
Thu 12:31:55 AM -30.7800 116.5440 199° South 426 490 34,000 -456 Level FlightAware ADS-B
Thu 12:32:36 AM -30.8626 116.5097 199° South 430 495 33,400 -1,245 Descending Aus ATC (RADAR)
Thu 12:32:48 AM -30.8870 116.5030 199° South 424 488 32,900 -2,093 Descending FlightAware ADS-B
Thu 12:33:19 AM -30.9430 116.4810 199° South 410 472 31,900 -2,029 Descending FlightAware ADS-B
Thu 12:33:56 AM -31.0099 116.4532 199° South 416 479 30,600 -2,000 Descending Aus ATC (RADAR)
Thu 12:33:58 AM -31.0150 116.4530 199° South 411 473 30,600 -1,784 Level FlightAware ADS-B
Thu 12:34:33 AM -31.0770 116.4280 199° South 407 468 29,500 -1,909 Descending FlightAware ADS-B
Thu 12:35:04 AM -31.1310 116.4070 198° South 387 445 28,500 -1,938 Descending FlightAware ADS-B
Thu 12:35:38 AM -31.1900 116.3840 198° South 373 429 27,400 -1,946 Descending FlightAware ADS-B
Thu 12:35:41 AM -31.1938 116.3817 198° South 387 445 27,300 -1,886 Descending Aus ATC (RADAR)
Thu 12:36:13 AM -31.2470 116.3610 199° South 370 426 26,300 -1,765 Descending FlightAware ADS-B
Thu 12:36:49 AM -31.3030 116.3390 199° South 361 415 25,300 -1,737 Descending FlightAware ADS-B
Thu 12:37:29 AM -31.3690 116.3130 199° South 372 428 24,100 -1,826 Descending FlightAware ADS-B
Thu 12:37:58 AM -31.4180 116.2930 199° South 353 406 23,200 -1,846 Descending FlightAware ADS-B
Thu 12:38:34 AM -31.4670 116.2620 208° Southwest 336 387 22,100 -1,760 Descending FlightAware ADS-B
Thu 12:39:13 AM -31.5230 116.2260 209° Southwest 332 382 21,000 -1,739 Descending FlightAware ADS-B
Thu 12:39:43 AM -31.5640 116.2000 208° Southwest 336 387 20,100 -1,714 Descending FlightAware ADS-B
Thu 12:40:23 AM -31.6170 116.1660 209° Southwest 313 360 19,000 -1,600 Descending FlightAware ADS-B
Thu 12:40:58 AM -31.6620 116.1370 209° Southwest 301 346 18,100 -1,543 Descending FlightAware ADS-B
Thu 12:41:33 AM -31.7050 116.1090 209° Southwest 299 344 17,200 -1,569 Descending FlightAware ADS-B
Thu 12:42:03 AM -31.7430 116.0860 207° Southwest 307 353 16,400 -1,455 Descending FlightAware ADS-B
Thu 12:42:39 AM -31.7920 116.0700 196° South 313 360 15,600 -1,610 Descending FlightAware ADS-B
Thu 12:43:25 AM -31.8626 116.0772 196° South 334 384 14,200 -1,565 Descending Aus ATC (RADAR)
Thu 12:43:25 AM -31.8570 116.0750 196° South 332 382 14,400 -1,000 Climbing FlightAware ADS-B
Thu 12:43:55 AM -31.8960 116.0960 196° South 326 375 13,700 -1,886 Descending FlightAware ADS-B
Thu 12:44:00 AM -31.9112 116.1058 196° South 332 382 13,300 -2,057 Descending Aus ATC (RADAR)
Thu 12:44:30 AM -31.9452 116.1425 196° South 328 377 12,500 -1,200 Descending Aus ATC (RADAR)
Thu 12:44:30 AM -31.9360 116.1330 196° South 327 376 12,700 -1,371 Climbing FlightAware ADS-B
Thu 12:45:05 AM -31.9810 116.1820 137° Southeast 318 366 11,700 -1,437 Descending FlightAware ADS-B
Thu 12:45:41 AM -32.0210 116.2240 138° Southeast 326 375 11,000 -833 Descending FlightAware ADS-B
Thu 12:46:17 AM -32.0570 116.2640 138° Southeast 324 373 10,700 -789 Descending FlightAware ADS-B
Thu 12:46:19 AM -32.0672 116.2747 138° Southeast 314 361 10,500 -2,143 Descending Aus ATC (RADAR)
Thu 12:46:45 AM -32.0960 116.2950 146° Southeast 315 362 9,700 -1,875 Descending FlightAware ADS-B
Thu 12:46:51 AM -32.1060 116.2960 175° South 311 358 9,500 -909 Descending FlightAware ADS-B
Thu 12:47:18 AM -32.1460 116.2870 191° South 289 333 9,200 -558 Descending FlightAware ADS-B
Thu 12:47:34 AM -32.1600 116.2740 218° Southwest 277 319 9,100 -462 Descending FlightAware ADS-B
Thu 12:47:44 AM -32.1690 116.2610 231° Southwest 273 314 9,000 -800 Descending FlightAware ADS-B
Thu 12:47:49 AM -32.1720 116.2540 243° Southwest 269 310 8,900 -800 Descending FlightAware ADS-B
Thu 12:47:59 AM -32.1760 116.2410 250° West 266 306 8,800 -400 Descending FlightAware ADS-B
Thu 12:48:19 AM -32.1820 116.2120 256° West 257 296 8,700 -450 Descending FlightAware ADS-B
Thu 12:48:39 AM -32.1870 116.1870 257° West 249 287 8,500 -667 Descending FlightAware ADS-B
Thu 12:48:55 AM -32.1920 116.1670 254° West 250 288 8,300 -1,200 Descending FlightAware ADS-B
Thu 12:49:14 AM -32.1970 116.1390 258° West 254 292 7,800 -1,538 Descending FlightAware ADS-B
Thu 12:49:34 AM -32.1970 116.1120 270° West 248 285 7,300 -1,636 Descending FlightAware ADS-B
Thu 12:50:09 AM -32.1980 116.0650 269° West 239 275 6,300 -1,406 Descending FlightAware ADS-B
Thu 12:50:38 AM -32.1980 116.0280 270° West 224 258 5,800 -1,080 Descending FlightAware ADS-B
Thu 12:50:59 AM -32.1930 116.0040 284° West 221 254 5,400 -1,350 Descending FlightAware ADS-B
Thu 12:51:18 AM -32.1880 115.9800 284° West 222 255 4,900 -1,050 Descending FlightAware ADS-B
Thu 12:51:39 AM -32.1830 115.9570 284° West 226 260 4,700 -750 Descending FlightAware ADS-B
Thu 12:51:58 AM -32.1770 115.9330 286° West 225 259 4,400 -1,000 Descending FlightAware ADS-B
Thu 12:52:09 AM -32.1730 115.9210 291° West 225 259 4,200 -1,200 Descending FlightAware ADS-B
Thu 12:52:13 AM -32.1700 115.9160 305° West 223 257 4,100 -750 Descending FlightAware ADS-B
Thu 12:52:25 AM -32.1620 115.9100 328° Northwest 219 252 4,000 -900 Descending FlightAware ADS-B
Thu 12:52:33 AM -32.1520 115.9060 341° North 208 239 3,800 -857 Descending FlightAware ADS-B
Thu 12:52:53 AM -32.1320 115.9090 North 201 231 3,600 -750 Descending FlightAware ADS-B
Thu 12:53:13 AM -32.1140 115.9140 13° North 200 230 3,300 -1,050 Descending FlightAware ADS-B
Thu 12:53:33 AM -32.0960 115.9200 16° North 187 215 2,900 -1,000 Descending FlightAware ADS-B
Thu 12:53:49 AM -32.0830 115.9240 15° North 183 211 2,700 -900 Descending FlightAware ADS-B
Thu 12:54:13 AM -32.0620 115.9290 11° North 170 196 2,300 -980 Descending FlightAware ADS-B
Thu 12:54:38 AM -32.0440 115.9350 16° North 154 177 1,900 -800 Descending FlightAware ADS-B
Thu 12:54:58 AM -32.0330 115.9380 13° North 137 158 1,700 -750 Descending FlightAware ADS-B
Thu 12:55:18 AM -32.0170 115.9430 15° North 135 155 1,400 -732 Descending FlightAware ADS-B
Thu 12:55:39 AM -32.0060 115.9460 13° North 130 150 1,200 -732 Descending FlightAware ADS-B
Thu 12:55:59 AM -31.9940 115.9490 12° North 132 152 900 -769 Descending FlightAware ADS-B
Thu 12:56:18 AM -31.9820 115.9530 16° North 131 151 700 -667 Descending FlightAware ADS-B
Thu 12:56:44 AM -31.9670 115.9570 13° North 133 153 400 -652 Descending FlightAware ADS-B
Thu 12:57:04 AM -31.9550 115.9610 16° North 132 152 200 -600 Descending FlightAware ADS-B

Login

Don't have an account? Register now (free) for customized features, flight alerts, and more!